sensor_id;sensor_type;location;lat;lon;timestamp;pressure;altitude;pressure_sealevel;temperature;humidity
86336;BME280;77070;0.000;0.000;2024-03-22T00:00:03;96989.11;;;8.50;79.07
86336;BME280;77070;0.000;0.000;2024-03-22T00:02:32;96989.05;;;8.51;79.23
86336;BME280;77070;0.000;0.000;2024-03-22T00:04:59;96991.73;;;8.42;79.93
86336;BME280;77070;0.000;0.000;2024-03-22T00:07:26;96991.46;;;8.37;80.16
86336;BME280;77070;0.000;0.000;2024-03-22T00:09:53;96991.23;;;8.41;80.07
86336;BME280;77070;0.000;0.000;2024-03-22T00:12:20;96988.58;;;8.44;79.96
86336;BME280;77070;0.000;0.000;2024-03-22T00:14:47;96987.35;;;8.43;79.83
86336;BME280;77070;0.000;0.000;2024-03-22T00:17:14;96990.44;;;8.42;80.23
86336;BME280;77070;0.000;0.000;2024-03-22T00:19:41;96986.29;;;8.40;80.12
86336;BME280;77070;0.000;0.000;2024-03-22T00:22:09;96986.59;;;8.38;80.32
86336;BME280;77070;0.000;0.000;2024-03-22T00:24:36;96980.37;;;8.38;80.51
86336;BME280;77070;0.000;0.000;2024-03-22T00:27:03;96979.46;;;8.41;80.57
86336;BME280;77070;0.000;0.000;2024-03-22T00:29:31;96972.54;;;8.42;80.28
86336;BME280;77070;0.000;0.000;2024-03-22T00:31:58;96969.23;;;8.44;80.24
86336;BME280;77070;0.000;0.000;2024-03-22T00:34:25;96969.83;;;8.46;80.30
86336;BME280;77070;0.000;0.000;2024-03-22T00:36:52;96973.77;;;8.44;80.24
86336;BME280;77070;0.000;0.000;2024-03-22T00:39:19;96975.63;;;8.41;80.48
86336;BME280;77070;0.000;0.000;2024-03-22T00:41:46;96978.39;;;8.38;80.56
86336;BME280;77070;0.000;0.000;2024-03-22T00:44:13;96976.91;;;8.42;80.30
86336;BME280;77070;0.000;0.000;2024-03-22T00:46:40;96976.27;;;8.43;80.30
86336;BME280;77070;0.000;0.000;2024-03-22T00:49:26;96977.08;;;8.44;80.49
86336;BME280;77070;0.000;0.000;2024-03-22T00:51:53;96977.92;;;8.44;80.39
86336;BME280;77070;0.000;0.000;2024-03-22T00:54:23;96976.27;;;8.44;80.74
86336;BME280;77070;0.000;0.000;2024-03-22T00:56:49;96974.09;;;8.46;80.53
86336;BME280;77070;0.000;0.000;2024-03-22T00:59:16;96972.86;;;8.45;80.67
86336;BME280;77070;0.000;0.000;2024-03-22T01:01:44;96975.58;;;8.44;80.76
86336;BME280;77070;0.000;0.000;2024-03-22T01:04:11;96974.78;;;8.46;80.85
86336;BME280;77070;0.000;0.000;2024-03-22T01:06:38;96976.33;;;8.48;80.95
86336;BME280;77070;0.000;0.000;2024-03-22T01:09:06;96972.97;;;8.50;81.11
86336;BME280;77070;0.000;0.000;2024-03-22T01:11:53;96976.80;;;8.57;80.36
86336;BME280;77070;0.000;0.000;2024-03-22T01:14:20;96977.71;;;8.66;79.69
86336;BME280;77070;0.000;0.000;2024-03-22T01:16:48;96974.08;;;8.74;79.20
86336;BME280;77070;0.000;0.000;2024-03-22T01:19:14;96970.86;;;8.80;79.08
86336;BME280;77070;0.000;0.000;2024-03-22T01:21:41;96971.02;;;8.88;78.94
86336;BME280;77070;0.000;0.000;2024-03-22T01:24:08;96969.63;;;8.96;78.50
86336;BME280;77070;0.000;0.000;2024-03-22T01:26:35;96970.41;;;9.00;78.23
86336;BME280;77070;0.000;0.000;2024-03-22T01:29:02;96970.73;;;9.04;78.26
86336;BME280;77070;0.000;0.000;2024-03-22T01:31:29;96968.27;;;9.04;78.20
86336;BME280;77070;0.000;0.000;2024-03-22T01:33:56;96968.21;;;9.06;78.13
86336;BME280;77070;0.000;0.000;2024-03-22T01:36:24;96964.95;;;9.08;78.28
86336;BME280;77070;0.000;0.000;2024-03-22T01:38:51;96963.41;;;9.12;77.99
86336;BME280;77070;0.000;0.000;2024-03-22T01:41:18;96959.23;;;9.14;77.92
86336;BME280;77070;0.000;0.000;2024-03-22T01:43:45;96959.44;;;9.15;77.88
86336;BME280;77070;0.000;0.000;2024-03-22T01:46:12;96958.96;;;9.15;78.08
86336;BME280;77070;0.000;0.000;2024-03-22T01:48:39;96958.54;;;9.16;78.01
86336;BME280;77070;0.000;0.000;2024-03-22T01:51:06;96957.09;;;9.18;78.09
86336;BME280;77070;0.000;0.000;2024-03-22T01:53:34;96956.11;;;9.19;78.06
86336;BME280;77070;0.000;0.000;2024-03-22T01:56:02;96957.67;;;9.20;77.81
86336;BME280;77070;0.000;0.000;2024-03-22T01:58:29;96956.92;;;9.20;77.73
86336;BME280;77070;0.000;0.000;2024-03-22T02:00:56;96952.02;;;9.20;77.93
86336;BME280;77070;0.000;0.000;2024-03-22T02:03:23;96955.21;;;9.21;77.94
86336;BME280;77070;0.000;0.000;2024-03-22T02:05:50;96955.74;;;9.23;78.10
86336;BME280;77070;0.000;0.000;2024-03-22T02:08:16;96955.41;;;9.24;77.79
86336;BME280;77070;0.000;0.000;2024-03-22T02:10:44;96955.69;;;9.25;77.74
86336;BME280;77070;0.000;0.000;2024-03-22T02:13:12;96958.73;;;9.23;77.83
86336;BME280;77070;0.000;0.000;2024-03-22T02:15:39;96960.27;;;9.21;77.81
86336;BME280;77070;0.000;0.000;2024-03-22T02:18:06;96961.67;;;9.22;77.84
86336;BME280;77070;0.000;0.000;2024-03-22T02:20:33;96961.12;;;9.26;77.68
86336;BME280;77070;0.000;0.000;2024-03-22T02:22:59;96960.73;;;9.28;77.56
86336;BME280;77070;0.000;0.000;2024-03-22T02:25:26;96955.83;;;9.28;77.97
86336;BME280;77070;0.000;0.000;2024-03-22T02:27:53;96954.14;;;9.23;78.23
86336;BME280;77070;0.000;0.000;2024-03-22T02:30:20;96954.80;;;9.19;78.24
86336;BME280;77070;0.000;0.000;2024-03-22T02:32:47;96958.80;;;9.18;78.07
86336;BME280;77070;0.000;0.000;2024-03-22T02:35:14;96956.12;;;9.20;78.19
86336;BME280;77070;0.000;0.000;2024-03-22T02:37:41;96954.95;;;9.22;78.15
86336;BME280;77070;0.000;0.000;2024-03-22T02:40:08;96954.84;;;9.23;78.05
86336;BME280;77070;0.000;0.000;2024-03-22T02:42:35;96955.85;;;9.21;78.40
86336;BME280;77070;0.000;0.000;2024-03-22T02:45:03;96958.30;;;9.20;78.41
86336;BME280;77070;0.000;0.000;2024-03-22T02:47:31;96958.80;;;9.19;78.46
86336;BME280;77070;0.000;0.000;2024-03-22T02:49:58;96960.06;;;9.21;78.57
86336;BME280;77070;0.000;0.000;2024-03-22T02:52:24;96959.86;;;9.20;78.68
86336;BME280;77070;0.000;0.000;2024-03-22T02:54:51;96961.09;;;9.19;78.67
86336;BME280;77070;0.000;0.000;2024-03-22T02:57:18;96958.69;;;9.17;79.04
86336;BME280;77070;0.000;0.000;2024-03-22T02:59:46;96958.59;;;9.15;79.12
86336;BME280;77070;0.000;0.000;2024-03-22T03:02:13;96958.91;;;9.14;79.05
86336;BME280;77070;0.000;0.000;2024-03-22T03:04:40;96954.97;;;9.14;78.92
86336;BME280;77070;0.000;0.000;2024-03-22T03:07:07;96957.27;;;9.13;78.93
86336;BME280;77070;0.000;0.000;2024-03-22T03:09:34;96955.72;;;9.12;79.05
86336;BME280;77070;0.000;0.000;2024-03-22T03:12:01;96952.90;;;9.09;79.10
86336;BME280;77070;0.000;0.000;2024-03-22T03:14:29;96951.48;;;9.07;79.19
86336;BME280;77070;0.000;0.000;2024-03-22T03:16:56;96950.09;;;9.07;78.94
86336;BME280;77070;0.000;0.000;2024-03-22T03:19:23;96951.89;;;9.09;79.18
86336;BME280;77070;0.000;0.000;2024-03-22T03:21:50;96949.86;;;9.09;79.35
86336;BME280;77070;0.000;0.000;2024-03-22T03:24:17;96950.66;;;9.08;79.59
86336;BME280;77070;0.000;0.000;2024-03-22T03:26:44;96952.45;;;9.01;79.16
86336;BME280;77070;0.000;0.000;2024-03-22T03:29:11;96947.11;;;8.98;79.27
86336;BME280;77070;0.000;0.000;2024-03-22T03:31:38;96945.19;;;8.97;79.21
86336;BME280;77070;0.000;0.000;2024-03-22T03:34:05;96945.84;;;8.96;78.98
86336;BME280;77070;0.000;0.000;2024-03-22T03:36:32;96945.31;;;8.93;79.07
86336;BME280;77070;0.000;0.000;2024-03-22T03:38:59;96943.61;;;8.89;78.78
86336;BME280;77070;0.000;0.000;2024-03-22T03:41:26;96942.02;;;8.88;78.80
86336;BME280;77070;0.000;0.000;2024-03-22T03:43:52;96934.02;;;8.89;78.65
86336;BME280;77070;0.000;0.000;2024-03-22T03:46:19;96936.05;;;8.90;78.44
86336;BME280;77070;0.000;0.000;2024-03-22T03:48:46;96932.52;;;8.87;78.29
86336;BME280;77070;0.000;0.000;2024-03-22T03:51:13;96929.86;;;8.86;78.32
86336;BME280;77070;0.000;0.000;2024-03-22T03:53:40;96925.08;;;8.84;78.10
86336;BME280;77070;0.000;0.000;2024-03-22T03:56:07;96920.92;;;8.83;78.15
86336;BME280;77070;0.000;0.000;2024-03-22T03:58:34;96919.74;;;8.86;78.14
86336;BME280;77070;0.000;0.000;2024-03-22T04:01:08;96920.96;;;8.90;78.05
86336;BME280;77070;0.000;0.000;2024-03-22T04:03:35;96920.24;;;8.91;78.06
86336;BME280;77070;0.000;0.000;2024-03-22T04:06:02;96914.40;;;8.91;78.11
86336;BME280;77070;0.000;0.000;2024-03-22T04:08:29;96913.64;;;8.93;78.27
86336;BME280;77070;0.000;0.000;2024-03-22T04:10:59;96910.93;;;8.88;78.52
86336;BME280;77070;0.000;0.000;2024-03-22T04:13:27;96913.66;;;8.88;78.22
86336;BME280;77070;0.000;0.000;2024-03-22T04:15:54;96911.38;;;8.89;78.50
86336;BME280;77070;0.000;0.000;2024-03-22T04:18:25;96912.32;;;8.90;78.90
86336;BME280;77070;0.000;0.000;2024-03-22T04:20:59;96910.23;;;8.88;79.14
86336;BME280;77070;0.000;0.000;2024-03-22T04:23:26;96910.63;;;8.84;79.30
86336;BME280;77070;0.000;0.000;2024-03-22T04:25:58;96914.38;;;8.82;79.20
86336;BME280;77070;0.000;0.000;2024-03-22T04:28:26;96907.49;;;8.77;79.52
86336;BME280;77070;0.000;0.000;2024-03-22T04:33:21;96909.90;;;8.76;79.17
86336;BME280;77070;0.000;0.000;2024-03-22T04:35:48;96911.66;;;8.78;78.91
86336;BME280;77070;0.000;0.000;2024-03-22T04:38:15;96911.12;;;8.80;78.62
86336;BME280;77070;0.000;0.000;2024-03-22T04:40:42;96911.44;;;8.81;78.53
86336;BME280;77070;0.000;0.000;2024-03-22T04:43:10;96911.13;;;8.82;78.48
86336;BME280;77070;0.000;0.000;2024-03-22T04:45:37;96910.86;;;8.79;78.30
86336;BME280;77070;0.000;0.000;2024-03-22T04:48:04;96910.91;;;8.78;78.33
86336;BME280;77070;0.000;0.000;2024-03-22T04:50:31;96902.96;;;8.80;78.16
86336;BME280;77070;0.000;0.000;2024-03-22T04:52:58;96900.62;;;8.79;78.73
86336;BME280;77070;0.000;0.000;2024-03-22T04:55:25;96898.29;;;8.76;78.41
86336;BME280;77070;0.000;0.000;2024-03-22T04:57:52;96895.98;;;8.76;78.58
86336;BME280;77070;0.000;0.000;2024-03-22T05:00:19;96894.77;;;8.73;78.68
86336;BME280;77070;0.000;0.000;2024-03-22T05:02:46;96899.73;;;8.72;79.14
86336;BME280;77070;0.000;0.000;2024-03-22T05:05:14;96899.05;;;8.68;79.63
86336;BME280;77070;0.000;0.000;2024-03-22T05:07:41;96897.30;;;8.61;80.06
86336;BME280;77070;0.000;0.000;2024-03-22T05:10:08;96893.30;;;8.60;80.02
86336;BME280;77070;0.000;0.000;2024-03-22T05:12:36;96893.52;;;8.61;80.00
86336;BME280;77070;0.000;0.000;2024-03-22T05:15:04;96896.17;;;8.62;79.91
86336;BME280;77070;0.000;0.000;2024-03-22T05:17:31;96899.48;;;8.62;80.31
86336;BME280;77070;0.000;0.000;2024-03-22T05:19:59;96901.46;;;8.57;80.62
86336;BME280;77070;0.000;0.000;2024-03-22T05:22:27;96896.24;;;8.55;80.48
86336;BME280;77070;0.000;0.000;2024-03-22T05:24:54;96898.00;;;8.53;80.68
86336;BME280;77070;0.000;0.000;2024-03-22T05:27:21;96896.84;;;8.51;81.17
86336;BME280;77070;0.000;0.000;2024-03-22T05:29:48;96896.41;;;8.49;81.42
86336;BME280;77070;0.000;0.000;2024-03-22T05:32:15;96894.77;;;8.46;81.34
86336;BME280;77070;0.000;0.000;2024-03-22T05:34:43;96895.52;;;8.47;80.86
86336;BME280;77070;0.000;0.000;2024-03-22T05:37:10;96894.80;;;8.50;80.63
86336;BME280;77070;0.000;0.000;2024-03-22T05:39:38;96891.50;;;8.53;80.79
86336;BME280;77070;0.000;0.000;2024-03-22T05:42:07;96890.27;;;8.54;80.70
86336;BME280;77070;0.000;0.000;2024-03-22T05:44:34;96891.98;;;8.56;80.69
86336;BME280;77070;0.000;0.000;2024-03-22T05:47:01;96891.86;;;8.61;80.51
86336;BME280;77070;0.000;0.000;2024-03-22T05:49:28;96888.60;;;8.65;80.46
86336;BME280;77070;0.000;0.000;2024-03-22T05:51:56;96891.05;;;8.68;80.45
86336;BME280;77070;0.000;0.000;2024-03-22T05:54:23;96900.16;;;8.72;80.08
86336;BME280;77070;0.000;0.000;2024-03-22T05:56:50;96902.34;;;8.75;80.16
86336;BME280;77070;0.000;0.000;2024-03-22T05:59:17;96901.16;;;8.76;80.36
86336;BME280;77070;0.000;0.000;2024-03-22T06:01:44;96901.95;;;8.77;80.61
86336;BME280;77070;0.000;0.000;2024-03-22T06:04:11;96900.89;;;8.80;80.48
86336;BME280;77070;0.000;0.000;2024-03-22T06:06:38;96902.36;;;8.85;80.75
86336;BME280;77070;0.000;0.000;2024-03-22T06:09:05;96894.16;;;8.86;80.28
86336;BME280;77070;0.000;0.000;2024-03-22T06:11:35;96896.66;;;8.88;80.42
86336;BME280;77070;0.000;0.000;2024-03-22T06:14:03;96891.48;;;8.87;80.36
86336;BME280;77070;0.000;0.000;2024-03-22T06:16:30;96893.39;;;8.88;80.34
86336;BME280;77070;0.000;0.000;2024-03-22T06:18:57;96893.50;;;8.87;80.36
86336;BME280;77070;0.000;0.000;2024-03-22T06:21:24;96888.55;;;8.86;80.21
86336;BME280;77070;0.000;0.000;2024-03-22T06:23:52;96891.21;;;8.89;80.46
86336;BME280;77070;0.000;0.000;2024-03-22T06:26:19;96893.02;;;8.93;80.47
86336;BME280;77070;0.000;0.000;2024-03-22T06:28:46;96893.42;;;8.98;80.09
86336;BME280;77070;0.000;0.000;2024-03-22T06:31:13;96896.29;;;9.02;79.71
86336;BME280;77070;0.000;0.000;2024-03-22T06:33:41;96899.39;;;9.02;79.44
86336;BME280;77070;0.000;0.000;2024-03-22T06:36:08;96894.91;;;8.98;79.08
86336;BME280;77070;0.000;0.000;2024-03-22T06:38:35;96894.45;;;8.94;79.20
86336;BME280;77070;0.000;0.000;2024-03-22T06:41:02;96884.75;;;8.90;79.06
86336;BME280;77070;0.000;0.000;2024-03-22T06:43:30;96883.14;;;8.93;79.17
86336;BME280;77070;0.000;0.000;2024-03-22T06:45:58;96886.44;;;9.00;78.92
86336;BME280;77070;0.000;0.000;2024-03-22T06:48:25;96883.57;;;9.09;78.64
86336;BME280;77070;0.000;0.000;2024-03-22T06:50:52;96882.30;;;9.09;78.33
86336;BME280;77070;0.000;0.000;2024-03-22T06:53:19;96879.75;;;9.07;78.54
86336;BME280;77070;0.000;0.000;2024-03-22T06:55:47;96881.83;;;9.06;78.39
86336;BME280;77070;0.000;0.000;2024-03-22T06:58:14;96882.38;;;9.02;77.92
86336;BME280;77070;0.000;0.000;2024-03-22T07:00:41;96880.23;;;9.06;78.24
86336;BME280;77070;0.000;0.000;2024-03-22T07:03:08;96879.22;;;9.06;78.73
86336;BME280;77070;0.000;0.000;2024-03-22T07:05:35;96878.84;;;9.06;78.96
86336;BME280;77070;0.000;0.000;2024-03-22T07:08:03;96882.58;;;9.03;79.13
86336;BME280;77070;0.000;0.000;2024-03-22T07:10:30;96881.59;;;8.98;79.08
86336;BME280;77070;0.000;0.000;2024-03-22T07:12:58;96886.52;;;8.92;79.13
86336;BME280;77070;0.000;0.000;2024-03-22T07:15:25;96889.46;;;8.87;79.06
86336;BME280;77070;0.000;0.000;2024-03-22T07:17:52;96893.20;;;8.83;79.41
86336;BME280;77070;0.000;0.000;2024-03-22T07:20:19;96893.48;;;8.78;79.84
86336;BME280;77070;0.000;0.000;2024-03-22T07:22:47;96891.84;;;8.73;80.33
86336;BME280;77070;0.000;0.000;2024-03-22T07:25:14;96896.11;;;8.67;80.60
86336;BME280;77070;0.000;0.000;2024-03-22T07:27:41;96890.47;;;8.65;80.51
86336;BME280;77070;0.000;0.000;2024-03-22T07:30:08;96893.84;;;8.63;80.83
86336;BME280;77070;0.000;0.000;2024-03-22T07:32:36;96897.95;;;8.60;81.32
86336;BME280;77070;0.000;0.000;2024-03-22T07:35:04;96896.99;;;8.54;81.17
86336;BME280;77070;0.000;0.000;2024-03-22T07:37:31;96897.10;;;8.50;81.23
86336;BME280;77070;0.000;0.000;2024-03-22T07:39:58;96898.92;;;8.51;81.26
86336;BME280;77070;0.000;0.000;2024-03-22T07:42:25;96898.69;;;8.52;80.68
86336;BME280;77070;0.000;0.000;2024-03-22T07:44:52;96896.73;;;8.52;80.50
86336;BME280;77070;0.000;0.000;2024-03-22T07:47:19;96894.18;;;8.50;80.39
86336;BME280;77070;0.000;0.000;2024-03-22T07:49:46;96894.02;;;8.43;80.40
86336;BME280;77070;0.000;0.000;2024-03-22T07:52:13;96896.05;;;8.41;80.35
86336;BME280;77070;0.000;0.000;2024-03-22T07:54:41;96892.00;;;8.42;80.40
86336;BME280;77070;0.000;0.000;2024-03-22T07:57:08;96885.77;;;8.44;80.35
86336;BME280;77070;0.000;0.000;2024-03-22T07:59:35;96886.08;;;8.47;80.47
86336;BME280;77070;0.000;0.000;2024-03-22T08:02:02;96881.65;;;8.47;80.20
86336;BME280;77070;0.000;0.000;2024-03-22T08:04:30;96885.17;;;8.48;79.99
86336;BME280;77070;0.000;0.000;2024-03-22T08:06:57;96883.84;;;8.51;80.09
86336;BME280;77070;0.000;0.000;2024-03-22T08:09:24;96882.66;;;8.52;79.88
86336;BME280;77070;0.000;0.000;2024-03-22T08:11:51;96882.13;;;8.57;79.41
86336;BME280;77070;0.000;0.000;2024-03-22T08:14:18;96878.08;;;8.58;79.22
86336;BME280;77070;0.000;0.000;2024-03-22T08:16:45;96871.73;;;8.56;79.15
86336;BME280;77070;0.000;0.000;2024-03-22T08:19:16;96869.16;;;8.59;79.28
86336;BME280;77070;0.000;0.000;2024-03-22T08:21:44;96872.52;;;8.61;79.18
86336;BME280;77070;0.000;0.000;2024-03-22T08:24:11;96872.94;;;8.65;78.94
86336;BME280;77070;0.000;0.000;2024-03-22T08:26:38;96873.56;;;8.70;78.77
86336;BME280;77070;0.000;0.000;2024-03-22T08:29:05;96877.66;;;8.72;78.50
86336;BME280;77070;0.000;0.000;2024-03-22T08:31:32;96878.52;;;8.72;78.21
86336;BME280;77070;0.000;0.000;2024-03-22T08:33:59;96876.54;;;8.74;78.15
86336;BME280;77070;0.000;0.000;2024-03-22T08:36:31;96876.05;;;8.74;78.25
86336;BME280;77070;0.000;0.000;2024-03-22T08:38:58;96872.44;;;8.76;78.18
86336;BME280;77070;0.000;0.000;2024-03-22T08:41:25;96872.85;;;8.81;77.93
86336;BME280;77070;0.000;0.000;2024-03-22T08:43:52;96869.58;;;8.87;77.70
86336;BME280;77070;0.000;0.000;2024-03-22T08:46:19;96867.68;;;8.96;77.48
86336;BME280;77070;0.000;0.000;2024-03-22T08:48:48;96866.65;;;9.03;77.29
86336;BME280;77070;0.000;0.000;2024-03-22T08:51:14;96867.13;;;9.02;77.12
86336;BME280;77070;0.000;0.000;2024-03-22T08:53:41;96870.05;;;9.03;77.26
86336;BME280;77070;0.000;0.000;2024-03-22T08:56:08;96867.67;;;9.00;77.06
86336;BME280;77070;0.000;0.000;2024-03-22T08:58:36;96859.16;;;8.93;76.71
86336;BME280;77070;0.000;0.000;2024-03-22T09:01:07;96860.82;;;8.90;76.45
86336;BME280;77070;0.000;0.000;2024-03-22T09:03:36;96867.86;;;8.89;76.87
86336;BME280;77070;0.000;0.000;2024-03-22T09:06:03;96872.96;;;8.92;76.57
86336;BME280;77070;0.000;0.000;2024-03-22T09:08:31;96869.17;;;8.93;76.43
86336;BME280;77070;0.000;0.000;2024-03-22T09:10:59;96863.45;;;8.97;76.23
86336;BME280;77070;0.000;0.000;2024-03-22T09:13:27;96866.39;;;8.98;75.93
86336;BME280;77070;0.000;0.000;2024-03-22T09:15:58;96873.25;;;9.02;75.54
86336;BME280;77070;0.000;0.000;2024-03-22T09:18:26;96872.44;;;9.03;75.22
86336;BME280;77070;0.000;0.000;2024-03-22T09:20:54;96874.22;;;9.02;75.13
86336;BME280;77070;0.000;0.000;2024-03-22T09:23:21;96870.89;;;9.05;74.95
86336;BME280;77070;0.000;0.000;2024-03-22T09:25:48;96871.80;;;9.07;74.77
86336;BME280;77070;0.000;0.000;2024-03-22T09:28:15;96873.61;;;9.06;75.34
86336;BME280;77070;0.000;0.000;2024-03-22T09:30:42;96876.57;;;9.02;76.06
86336;BME280;77070;0.000;0.000;2024-03-22T09:33:10;96878.17;;;8.98;76.35
86336;BME280;77070;0.000;0.000;2024-03-22T09:35:37;96875.85;;;8.96;76.49
86336;BME280;77070;0.000;0.000;2024-03-22T09:38:04;96874.08;;;8.93;75.59
86336;BME280;77070;0.000;0.000;2024-03-22T09:40:31;96877.71;;;8.93;75.37
86336;BME280;77070;0.000;0.000;2024-03-22T09:43:02;96874.73;;;8.93;75.98
86336;BME280;77070;0.000;0.000;2024-03-22T09:45:31;96878.42;;;8.92;75.33
86336;BME280;77070;0.000;0.000;2024-03-22T09:47:59;96878.03;;;8.95;74.99
86336;BME280;77070;0.000;0.000;2024-03-22T09:50:33;96876.25;;;8.98;74.56
86336;BME280;77070;0.000;0.000;2024-03-22T09:53:02;96874.37;;;9.03;74.94
86336;BME280;77070;0.000;0.000;2024-03-22T09:55:40;96873.45;;;9.05;74.95
86336;BME280;77070;0.000;0.000;2024-03-22T09:58:34;96874.61;;;9.09;74.33
86336;BME280;77070;0.000;0.000;2024-03-22T10:01:07;96875.73;;;9.10;73.58
86336;BME280;77070;0.000;0.000;2024-03-22T10:03:34;96876.27;;;9.11;73.55
86336;BME280;77070;0.000;0.000;2024-03-22T10:06:03;96870.28;;;9.24;73.34
86336;BME280;77070;0.000;0.000;2024-03-22T10:08:31;96861.70;;;9.38;73.56
86336;BME280;77070;0.000;0.000;2024-03-22T10:11:02;96856.45;;;9.49;72.96
86336;BME280;77070;0.000;0.000;2024-03-22T10:13:30;96854.73;;;9.49;72.76
86336;BME280;77070;0.000;0.000;2024-03-22T10:15:57;96855.73;;;9.46;72.89
86336;BME280;77070;0.000;0.000;2024-03-22T10:18:26;96847.38;;;9.40;73.38
86336;BME280;77070;0.000;0.000;2024-03-22T10:21:04;96845.77;;;9.42;73.08
86336;BME280;77070;0.000;0.000;2024-03-22T10:23:32;96845.23;;;9.50;72.72
86336;BME280;77070;0.000;0.000;2024-03-22T10:26:00;96844.90;;;9.52;72.35
86336;BME280;77070;0.000;0.000;2024-03-22T10:28:27;96842.27;;;9.53;72.27
86336;BME280;77070;0.000;0.000;2024-03-22T10:30:55;96840.14;;;9.53;71.98
86336;BME280;77070;0.000;0.000;2024-03-22T10:33:22;96839.95;;;9.50;71.69
86336;BME280;77070;0.000;0.000;2024-03-22T10:35:54;96841.29;;;9.49;71.89
86336;BME280;77070;0.000;0.000;2024-03-22T10:38:21;96837.32;;;9.52;71.54
86336;BME280;77070;0.000;0.000;2024-03-22T10:40:49;96836.13;;;9.57;71.15
86336;BME280;77070;0.000;0.000;2024-03-22T10:43:16;96832.17;;;9.63;71.16
86336;BME280;77070;0.000;0.000;2024-03-22T10:45:48;96829.91;;;9.70;71.13
86336;BME280;77070;0.000;0.000;2024-03-22T10:48:19;96825.21;;;9.81;71.07
86336;BME280;77070;0.000;0.000;2024-03-22T10:50:48;96817.16;;;9.88;71.16
86336;BME280;77070;0.000;0.000;2024-03-22T10:53:19;96817.50;;;9.99;70.64
86336;BME280;77070;0.000;0.000;2024-03-22T10:55:49;96810.20;;;10.04;70.13
86336;BME280;77070;0.000;0.000;2024-03-22T10:58:23;96805.60;;;10.11;69.60
86336;BME280;77070;0.000;0.000;2024-03-22T11:00:55;96809.17;;;10.23;69.59
86336;BME280;77070;0.000;0.000;2024-03-22T11:03:24;96800.59;;;10.47;69.91
86336;BME280;77070;0.000;0.000;2024-03-22T11:05:56;96794.38;;;10.66;68.89
86336;BME280;77070;0.000;0.000;2024-03-22T11:10:50;96788.71;;;10.79;67.62
86336;BME280;77070;0.000;0.000;2024-03-22T11:13:18;96784.54;;;10.84;67.09
86336;BME280;77070;0.000;0.000;2024-03-22T11:15:51;96774.35;;;10.90;66.70
86336;BME280;77070;0.000;0.000;2024-03-22T11:18:18;96768.39;;;11.01;66.16
86336;BME280;77070;0.000;0.000;2024-03-22T11:20:45;96764.54;;;11.28;66.92
86336;BME280;77070;0.000;0.000;2024-03-22T11:23:13;96766.34;;;11.62;66.33
86336;BME280;77070;0.000;0.000;2024-03-22T11:25:41;96757.46;;;11.85;66.09
86336;BME280;77070;0.000;0.000;2024-03-22T11:28:08;96755.38;;;12.11;65.42
86336;BME280;77070;0.000;0.000;2024-03-22T11:30:35;96750.09;;;12.31;63.05
86336;BME280;77070;0.000;0.000;2024-03-22T11:33:03;96746.36;;;12.35;60.49
86336;BME280;77070;0.000;0.000;2024-03-22T11:35:33;96747.46;;;12.36;61.73
86336;BME280;77070;0.000;0.000;2024-03-22T11:38:00;96738.80;;;12.43;60.34
86336;BME280;77070;0.000;0.000;2024-03-22T11:40:28;96735.76;;;12.46;59.86
86336;BME280;77070;0.000;0.000;2024-03-22T11:42:57;96729.23;;;12.53;59.80
86336;BME280;77070;0.000;0.000;2024-03-22T11:45:25;96721.15;;;12.61;58.50
86336;BME280;77070;0.000;0.000;2024-03-22T11:47:53;96723.02;;;12.54;57.83
86336;BME280;77070;0.000;0.000;2024-03-22T11:50:20;96720.09;;;12.52;58.53
86336;BME280;77070;0.000;0.000;2024-03-22T11:52:47;96718.61;;;12.70;59.10
86336;BME280;77070;0.000;0.000;2024-03-22T11:55:15;96720.33;;;12.79;57.77
86336;BME280;77070;0.000;0.000;2024-03-22T11:57:50;96715.82;;;12.92;57.71
86336;BME280;77070;0.000;0.000;2024-03-22T12:00:19;96709.19;;;13.06;57.38
86336;BME280;77070;0.000;0.000;2024-03-22T12:02:46;96710.20;;;13.21;57.33
86336;BME280;77070;0.000;0.000;2024-03-22T12:05:13;96703.71;;;13.01;55.41
86336;BME280;77070;0.000;0.000;2024-03-22T12:07:40;96701.84;;;12.91;56.25
86336;BME280;77070;0.000;0.000;2024-03-22T12:10:08;96702.98;;;12.78;55.93
86336;BME280;77070;0.000;0.000;2024-03-22T12:12:35;96695.86;;;12.65;56.73
86336;BME280;77070;0.000;0.000;2024-03-22T12:15:05;96700.08;;;12.66;57.84
86336;BME280;77070;0.000;0.000;2024-03-22T12:17:32;96700.14;;;12.68;57.04
86336;BME280;77070;0.000;0.000;2024-03-22T12:20:08;96694.77;;;12.71;56.85
86336;BME280;77070;0.000;0.000;2024-03-22T12:22:36;96690.96;;;12.76;55.64
86336;BME280;77070;0.000;0.000;2024-03-22T12:25:07;96691.36;;;12.82;55.54
86336;BME280;77070;0.000;0.000;2024-03-22T12:27:36;96698.71;;;12.90;54.79
86336;BME280;77070;0.000;0.000;2024-03-22T12:30:06;96695.36;;;12.91;54.39
86336;BME280;77070;0.000;0.000;2024-03-22T12:32:34;96696.45;;;12.95;53.61
86336;BME280;77070;0.000;0.000;2024-03-22T12:35:23;96686.84;;;12.98;53.54
86336;BME280;77070;0.000;0.000;2024-03-22T12:37:51;96686.35;;;13.03;53.64
86336;BME280;77070;0.000;0.000;2024-03-22T12:40:20;96684.30;;;13.18;53.59
86336;BME280;77070;0.000;0.000;2024-03-22T12:42:47;96678.38;;;13.49;53.13
86336;BME280;77070;0.000;0.000;2024-03-22T12:45:14;96675.08;;;13.78;52.45
86336;BME280;77070;0.000;0.000;2024-03-22T12:47:41;96668.98;;;13.97;51.20
86336;BME280;77070;0.000;0.000;2024-03-22T12:50:09;96659.89;;;14.24;51.42
86336;BME280;77070;0.000;0.000;2024-03-22T12:52:37;96655.30;;;14.65;50.96
86336;BME280;77070;0.000;0.000;2024-03-22T12:55:06;96653.83;;;15.07;49.11
86336;BME280;77070;0.000;0.000;2024-03-22T12:57:36;96651.61;;;15.21;48.01
86336;BME280;77070;0.000;0.000;2024-03-22T13:00:03;96652.98;;;15.40;48.01
86336;BME280;77070;0.000;0.000;2024-03-22T13:02:34;96646.37;;;15.52;46.38
86336;BME280;77070;0.000;0.000;2024-03-22T13:05:02;96645.52;;;15.46;47.46
86336;BME280;77070;0.000;0.000;2024-03-22T13:07:30;96646.66;;;15.21;47.26
86336;BME280;77070;0.000;0.000;2024-03-22T13:09:58;96637.79;;;14.99;47.04
86336;BME280;77070;0.000;0.000;2024-03-22T13:12:30;96645.52;;;15.53;47.80
86336;BME280;77070;0.000;0.000;2024-03-22T13:15:01;96638.91;;;16.02;45.43
86336;BME280;77070;0.000;0.000;2024-03-22T13:17:30;96638.68;;;16.42;45.24
86336;BME280;77070;0.000;0.000;2024-03-22T13:19:59;96639.51;;;16.68;44.52
86336;BME280;77070;0.000;0.000;2024-03-22T13:22:30;96642.70;;;16.69;42.94
86336;BME280;77070;0.000;0.000;2024-03-22T13:24:57;96636.86;;;16.75;42.61
86336;BME280;77070;0.000;0.000;2024-03-22T13:27:25;96633.79;;;16.75;42.84